Time;durP1;ratioP1;P1;durP2;ratioP2;P2;SDS_P1;SDS_P2;PMS_P1;PMS_P2;Temp;Humidity;BMP_temperature;BMP_pressure;BME280_temperature;BME280_humidity;BME280_pressure;Samples;Min_cycle;Max_cycle;Signal;HPM_P1;HPM_P2
2023/07/10 00:01:56;;;;;;;10.63;5.20;;;25.90;76.80;;;;;;5045125;28;20226;-62
2023/07/10 00:04:23;;;;;;;8.67;5.57;;;25.90;76.90;;;;;;5043132;28;20196;-62
2023/07/10 00:06:50;;;;;;;8.43;5.30;;;25.90;77.10;;;;;;5042620;28;20249;-63
2023/07/10 00:09:17;;;;;;;6.83;5.20;;;25.90;77.20;;;;;;5045155;28;20202;-62
2023/07/10 00:11:45;;;;;;;11.07;5.73;;;25.90;77.10;;;;;;5039672;28;20280;-62
2023/07/10 00:14:21;;;;;;;5.77;5.27;;;25.90;77.00;;;;;;5045503;28;20293;-62
2023/07/10 00:16:49;;;;;;;6.53;4.97;;;25.80;76.60;;;;;;5045946;28;20198;-62
2023/07/10 00:19:17;;;;;;;6.40;5.20;;;25.80;76.80;;;;;;5027197;28;20331;-62
2023/07/10 00:21:48;;;;;;;6.27;5.13;;;25.80;76.90;;;;;;5046292;28;20301;-62
2023/07/10 00:24:15;;;;;;;5.33;4.83;;;25.70;76.80;;;;;;5040314;28;20195;-63
2023/07/10 00:26:42;;;;;;;7.93;5.17;;;25.70;76.80;;;;;;5044196;28;20658;-62
2023/07/10 00:29:22;;;;;;;6.20;5.10;;;25.70;76.70;;;;;;5045437;28;20245;-62
2023/07/10 00:31:49;;;;;;;6.33;5.43;;;25.70;76.70;;;;;;5045700;28;20194;-62
2023/07/10 00:34:25;;;;;;;5.97;4.77;;;25.60;76.50;;;;;;5043792;28;20226;-62
2023/07/10 00:36:53;;;;;;;9.70;5.53;;;25.60;76.70;;;;;;5038722;28;20244;-63
2023/07/10 00:39:26;;;;;;;7.83;5.83;;;25.60;76.90;;;;;;5042859;28;20207;-62
2023/07/10 00:41:59;;;;;;;7.90;5.87;;;25.50;76.60;;;;;;5045504;28;20194;-62
2023/07/10 00:44:36;;;;;;;6.93;5.10;;;25.50;76.80;;;;;;5042958;28;20667;-62
2023/07/10 00:47:11;;;;;;;6.53;5.80;;;25.40;76.70;;;;;;5041680;28;20203;-62
2023/07/10 00:49:55;;;;;;;11.23;5.37;;;25.50;77.10;;;;;;5032210;28;20212;-62
2023/07/10 00:52:43;;;;;;;6.87;4.80;;;25.40;77.40;;;;;;5030884;28;20290;-62
2023/07/10 00:55:36;;;;;;;12.80;5.90;;;25.40;77.90;;;;;;5043969;28;20201;-62
2023/07/10 00:58:24;;;;;;;12.20;6.07;;;25.40;77.80;;;;;;5037962;28;20222;-62
2023/07/10 01:01:09;;;;;;;8.10;6.03;;;25.30;77.90;;;;;;5046209;28;20237;-62
2023/07/10 01:03:39;;;;;;;7.23;5.83;;;25.20;77.90;;;;;;5026281;28;20224;-62
2023/07/10 01:06:12;;;;;;;6.80;5.60;;;25.20;78.30;;;;;;5028817;28;20195;-62
2023/07/10 01:08:42;;;;;;;7.57;6.27;;;25.20;78.70;;;;;;5043423;28;20202;-62
2023/07/10 01:11:10;;;;;;;6.50;5.07;;;25.20;79.00;;;;;;5037218;28;20189;-62
2023/07/10 01:13:41;;;;;;;6.53;5.17;;;25.10;79.30;;;;;;5041421;28;20653;-62
2023/07/10 01:16:09;;;;;;;7.63;5.30;;;25.10;79.70;;;;;;5047040;28;20231;-62
2023/07/10 01:18:38;;;;;;;8.00;5.53;;;25.00;79.80;;;;;;5039912;28;20634;-62
2023/07/10 01:21:12;;;;;;;10.63;5.40;;;25.00;80.00;;;;;;5052487;28;20319;-62
2023/07/10 01:23:39;;;;;;;7.97;5.33;;;25.00;80.40;;;;;;5038249;28;20195;-63
2023/07/10 01:26:08;;;;;;;6.27;5.60;;;25.00;80.50;;;;;;5032454;28;20209;-62
2023/07/10 01:28:36;;;;;;;9.07;5.40;;;25.00;80.70;;;;;;5045419;28;20233;-62
2023/07/10 01:31:08;;;;;;;6.23;5.40;;;24.90;80.90;;;;;;5041291;28;20225;-62
2023/07/10 01:33:41;;;;;;;8.43;6.33;;;24.90;81.20;;;;;;5041545;28;20200;-62
2023/07/10 01:36:11;;;;;;;11.33;5.47;;;24.90;81.40;;;;;;5040978;28;20285;-62
2023/07/10 01:38:49;;;;;;;7.63;5.73;;;24.90;81.60;;;;;;5032712;28;20654;-62
2023/07/10 01:41:39;;;;;;;8.40;5.87;;;24.90;81.90;;;;;;5043995;28;20659;-62
2023/07/10 01:44:31;;;;;;;7.23;5.60;;;24.90;82.00;;;;;;5049301;28;20199;-62
2023/07/10 01:47:00;;;;;;;9.63;4.80;;;24.90;82.10;;;;;;5025716;28;20210;-62
2023/07/10 01:49:32;;;;;;;6.97;4.60;;;24.80;81.90;;;;;;5039089;28;20589;-62
2023/07/10 01:52:04;;;;;;;8.33;6.10;;;24.80;81.90;;;;;;5032354;28;20257;-62
2023/07/10 01:54:31;;;;;;;12.77;6.23;;;24.70;81.80;;;;;;5040036;28;20200;-62
2023/07/10 01:56:58;;;;;;;7.47;5.47;;;24.70;82.00;;;;;;5032341;28;20676;-62
2023/07/10 01:59:25;;;;;;;6.13;5.37;;;24.70;82.20;;;;;;5027703;28;20361;-62
2023/07/10 02:01:57;;;;;;;10.97;5.33;;;24.60;82.40;;;;;;5041462;28;20294;-63
2023/07/10 02:04:25;;;;;;;7.87;5.87;;;24.60;82.60;;;;;;5041949;28;20203;-62
2023/07/10 02:06:56;;;;;;;6.87;5.53;;;24.60;82.60;;;;;;5043500;28;20205;-62
2023/07/10 02:09:27;;;;;;;6.90;6.20;;;24.60;82.60;;;;;;5040090;28;20207;-62
2023/07/10 02:11:55;;;;;;;7.17;6.13;;;24.50;82.70;;;;;;5055758;28;20211;-62
2023/07/10 02:14:22;;;;;;;7.70;5.77;;;24.50;82.90;;;;;;5042580;28;20260;-62
2023/07/10 02:16:50;;;;;;;8.87;6.30;;;24.50;83.20;;;;;;5041678;28;20223;-62
2023/07/10 02:19:19;;;;;;;8.57;5.87;;;24.50;84.00;;;;;;5045048;28;20260;-63
2023/07/10 02:21:47;;;;;;;7.83;5.97;;;24.50;83.60;;;;;;5045879;28;21619;-62
2023/07/10 02:24:14;;;;;;;9.33;6.10;;;24.50;83.80;;;;;;5050636;28;20192;-62
2023/07/10 02:26:41;;;;;;;7.07;6.03;;;24.40;84.10;;;;;;5042953;28;20399;-62
2023/07/10 02:29:08;;;;;;;6.57;5.83;;;24.40;84.30;;;;;;5046361;28;20242;-62
2023/07/10 02:31:36;;;;;;;7.60;6.77;;;24.40;84.50;;;;;;5033084;28;20199;-62
2023/07/10 02:34:03;;;;;;;9.20;6.60;;;24.40;84.80;;;;;;5045144;28;20208;-62
2023/07/10 02:36:30;;;;;;;11.27;6.80;;;24.40;85.00;;;;;;5031746;28;20238;-62
2023/07/10 02:38:57;;;;;;;6.93;6.23;;;24.30;85.20;;;;;;5043661;28;20521;-62
2023/07/10 02:41:25;;;;;;;8.97;6.17;;;24.30;85.20;;;;;;5026416;28;20653;-62
2023/07/10 02:43:54;;;;;;;6.87;6.17;;;24.30;84.80;;;;;;5046351;28;20199;-62
2023/07/10 02:46:21;;;;;;;9.03;6.30;;;24.30;84.70;;;;;;5043526;28;20618;-62
2023/07/10 02:48:49;;;;;;;6.87;5.70;;;24.30;84.60;;;;;;5043547;28;20187;-62
2023/07/10 02:51:16;;;;;;;8.60;6.20;;;24.30;84.30;;;;;;5048216;28;20234;-62
2023/07/10 02:53:43;;;;;;;9.43;5.73;;;24.20;84.20;;;;;;5034482;28;20633;-62
2023/07/10 02:56:10;;;;;;;7.73;6.27;;;24.20;84.20;;;;;;5045095;28;20633;-62
2023/07/10 02:58:37;;;;;;;7.03;6.33;;;24.20;84.20;;;;;;5040840;28;20199;-62
2023/07/10 03:01:04;;;;;;;8.33;6.73;;;24.20;84.00;;;;;;5048722;28;20276;-63
2023/07/10 03:03:33;;;;;;;7.83;5.60;;;24.30;84.10;;;;;;5046827;28;20269;-62
2023/07/10 03:06:01;;;;;;;7.13;5.27;;;24.20;84.20;;;;;;5059420;28;20221;-63
2023/07/10 03:08:30;;;;;;;10.93;6.80;;;24.20;84.40;;;;;;5042302;28;20215;-62
2023/07/10 03:11:02;;;;;;;10.27;5.47;;;24.20;84.50;;;;;;5039277;28;20204;-62
2023/07/10 03:13:33;;;;;;;8.37;6.17;;;24.10;84.70;;;;;;5042041;28;20207;-62
2023/07/10 03:16:06;;;;;;;9.73;5.87;;;24.10;84.90;;;;;;5034339;28;20204;-62
2023/07/10 03:18:36;;;;;;;7.77;6.50;;;24.00;85.00;;;;;;5046185;28;20214;-62
2023/07/10 03:21:06;;;;;;;12.87;6.83;;;24.00;85.00;;;;;;5044005;28;20203;-62
2023/07/10 03:23:33;;;;;;;11.50;6.23;;;24.00;84.90;;;;;;5043579;28;20236;-62
2023/07/10 03:26:01;;;;;;;9.80;6.03;;;23.90;84.80;;;;;;5046092;28;20205;-62
2023/07/10 03:28:34;;;;;;;7.20;6.37;;;23.80;84.90;;;;;;5045519;28;20230;-62
2023/07/10 03:31:01;;;;;;;9.20;6.10;;;23.80;85.00;;;;;;5045873;28;20676;-63
2023/07/10 03:33:31;;;;;;;9.17;7.07;;;23.80;85.10;;;;;;5042696;28;20209;-62
2023/07/10 03:36:05;;;;;;;8.03;6.37;;;23.80;85.20;;;;;;5042856;28;20227;-62
2023/07/10 03:38:33;;;;;;;10.10;6.40;;;23.80;85.30;;;;;;5061809;28;20206;-62
2023/07/10 03:41:00;;;;;;;11.80;6.40;;;23.70;85.80;;;;;;5040864;28;20216;-62
2023/07/10 03:43:28;;;;;;;8.53;6.40;;;23.70;85.10;;;;;;5046162;28;20609;-62
2023/07/10 03:45:55;;;;;;;7.17;5.87;;;23.70;85.10;;;;;;5031592;28;20208;-62
2023/07/10 03:48:23;;;;;;;9.40;5.77;;;23.70;85.40;;;;;;5040683;28;20588;-61
2023/07/10 03:50:50;;;;;;;7.70;5.93;;;23.70;85.60;;;;;;5044346;28;20208;-62
2023/07/10 03:53:18;;;;;;;8.50;5.80;;;23.60;85.70;;;;;;5042558;28;20196;-62
2023/07/10 03:55:52;;;;;;;10.23;6.00;;;23.60;85.90;;;;;;5048544;28;20194;-62
2023/07/10 03:58:23;;;;;;;8.33;6.53;;;23.60;86.10;;;;;;5041253;28;20546;-62
2023/07/10 04:00:51;;;;;;;15.60;6.50;;;23.60;86.20;;;;;;5041516;28;20747;-62
2023/07/10 04:03:21;;;;;;;8.53;6.47;;;23.60;86.30;;;;;;5044920;28;20198;-62
2023/07/10 04:05:52;;;;;;;15.47;7.03;;;23.60;86.40;;;;;;5042584;28;21076;-62
2023/07/10 04:08:30;;;;;;;7.67;6.07;;;23.70;86.50;;;;;;5042538;28;20202;-62
2023/07/10 04:11:02;;;;;;;9.50;6.67;;;23.70;86.60;;;;;;5040277;28;20260;-62
2023/07/10 04:13:30;;;;;;;6.70;6.00;;;23.70;86.80;;;;;;5040458;28;20286;-62
2023/07/10 04:16:11;;;;;;;7.90;6.43;;;23.70;86.80;;;;;;5045458;28;20315;-62
2023/07/10 04:18:40;;;;;;;8.93;6.90;;;23.70;87.10;;;;;;5044432;28;20196;-62
2023/07/10 04:21:25;;;;;;;10.60;7.23;;;23.70;87.00;;;;;;5039272;28;20210;-62
2023/07/10 04:23:53;;;;;;;9.33;6.23;;;23.80;87.90;;;;;;5044101;28;20284;-62
2023/07/10 04:26:30;;;;;;;6.73;6.00;;;23.80;87.30;;;;;;5039519;28;20198;-62
2023/07/10 04:28:59;;;;;;;7.90;5.60;;;23.80;87.30;;;;;;5043348;28;20242;-62
2023/07/10 04:31:27;;;;;;;6.73;6.03;;;23.80;88.00;;;;;;5042225;28;20195;-62
2023/07/10 04:33:56;;;;;;;7.50;6.07;;;23.90;87.40;;;;;;5044354;28;20202;-62
2023/07/10 04:36:23;;;;;;;7.93;6.13;;;23.90;87.40;;;;;;5029874;28;20676;-63
2023/07/10 04:38:51;;;;;;;7.83;6.17;;;24.00;87.40;;;;;;5047188;28;20233;-62
2023/07/10 04:41:21;;;;;;;6.80;6.10;;;24.00;87.40;;;;;;5044182;28;20222;-62
2023/07/10 04:43:48;;;;;;;7.23;5.93;;;24.00;87.50;;;;;;5041067;28;20203;-62
2023/07/10 04:46:17;;;;;;;8.63;5.57;;;24.10;87.50;;;;;;5042505;28;20245;-62
2023/07/10 04:48:44;;;;;;;7.80;5.60;;;24.10;87.60;;;;;;5043774;28;20199;-62
2023/07/10 04:51:13;;;;;;;7.80;5.60;;;24.20;87.50;;;;;;5039438;28;20261;-62
2023/07/10 04:53:40;;;;;;;13.00;7.10;;;24.20;87.50;;;;;;5043318;28;20209;-62
2023/07/10 04:56:11;;;;;;;8.30;6.37;;;24.30;88.00;;;;;;5040380;28;20199;-62
2023/07/10 04:58:56;;;;;;;9.57;6.00;;;24.40;87.00;;;;;;5038231;28;20199;-62
2023/07/10 05:01:26;;;;;;;10.53;6.90;;;24.50;86.60;;;;;;5041773;28;20210;-62
2023/07/10 05:03:54;;;;;;;9.13;6.83;;;24.50;86.30;;;;;;5045664;28;20285;-62
2023/07/10 05:06:21;;;;;;;9.73;6.60;;;24.60;86.30;;;;;;5042000;28;20539;-62
2023/07/10 05:08:52;;;;;;;6.57;5.77;;;24.70;86.40;;;;;;5047963;28;20223;-62
2023/07/10 05:11:22;;;;;;;25.90;7.37;;;24.80;86.50;;;;;;5029391;28;20510;-62
2023/07/10 05:13:49;;;;;;;21.73;7.23;;;24.90;86.60;;;;;;5041963;28;20535;-62
2023/07/10 05:16:16;;;;;;;17.47;7.13;;;25.00;86.70;;;;;;5045621;28;20249;-62
2023/07/10 05:18:43;;;;;;;15.70;6.63;;;25.10;86.80;;;;;;5029210;28;20338;-62
2023/07/10 05:21:11;;;;;;;7.20;5.87;;;25.20;86.90;;;;;;5038273;28;20667;-62
2023/07/10 05:23:38;;;;;;;9.03;6.80;;;25.30;86.80;;;;;;5019347;28;20259;-62
2023/07/10 05:26:14;;;;;;;8.90;6.23;;;25.40;86.80;;;;;;5038901;28;20664;-62
2023/07/10 05:28:41;;;;;;;9.43;6.77;;;25.50;86.60;;;;;;5042589;28;20785;-62
2023/07/10 05:31:10;;;;;;;9.97;6.37;;;25.60;86.30;;;;;;5043276;28;20345;-62
2023/07/10 05:33:40;;;;;;;10.80;7.00;;;25.80;86.00;;;;;;5044270;28;20200;-62
2023/07/10 05:36:11;;;;;;;9.10;6.57;;;25.90;85.70;;;;;;5039375;28;20548;-63
2023/07/10 05:38:39;;;;;;;10.80;7.23;;;26.00;85.40;;;;;;5038377;28;20206;-62
2023/07/10 05:41:07;;;;;;;13.43;7.47;;;26.20;85.30;;;;;;5043183;28;20209;-62
2023/07/10 05:43:35;;;;;;;9.20;8.20;;;26.20;85.00;;;;;;5046652;28;20202;-62
2023/07/10 05:46:03;;;;;;;11.97;8.57;;;26.40;85.50;;;;;;5041971;28;20205;-62
2023/07/10 05:48:31;;;;;;;10.43;9.27;;;26.60;84.50;;;;;;5045214;28;20290;-62
2023/07/10 05:50:58;;;;;;;10.23;8.80;;;26.80;84.10;;;;;;5040750;28;20646;-62
2023/07/10 05:53:26;;;;;;;12.07;8.87;;;26.90;83.60;;;;;;5042583;28;20206;-62
2023/07/10 05:55:55;;;;;;;13.00;8.87;;;27.10;83.20;;;;;;5040465;28;20251;-62
2023/07/10 05:58:27;;;;;;;11.47;9.37;;;27.30;82.90;;;;;;5045271;28;20210;-62
2023/07/10 06:00:57;;;;;;;11.40;10.30;;;27.40;82.60;;;;;;5043042;28;20320;-62
2023/07/10 06:03:25;;;;;;;12.97;10.53;;;27.60;82.20;;;;;;5044261;28;20656;-62
2023/07/10 06:05:54;;;;;;;14.20;10.83;;;27.80;81.80;;;;;;5048997;28;20197;-62
2023/07/10 06:08:21;;;;;;;17.30;12.07;;;27.90;81.30;;;;;;5045009;28;20645;-62
2023/07/10 06:10:48;;;;;;;14.37;12.87;;;28.10;80.90;;;;;;5038632;28;20202;-63
2023/07/10 06:13:16;;;;;;;18.17;13.87;;;28.20;80.40;;;;;;5049346;28;20301;-62
2023/07/10 06:15:45;;;;;;;15.47;12.63;;;28.30;80.20;;;;;;5049666;28;20201;-62
2023/07/10 06:18:13;;;;;;;15.20;12.10;;;28.50;79.90;;;;;;5049685;28;20248;-62
2023/07/10 06:20:40;;;;;;;14.40;12.93;;;28.60;79.50;;;;;;5041604;28;20304;-62
2023/07/10 06:23:07;;;;;;;15.77;13.00;;;28.70;79.00;;;;;;5045730;28;20198;-62
2023/07/10 06:25:34;;;;;;;14.57;13.07;;;28.80;78.50;;;;;;5048290;28;20230;-62
2023/07/10 06:28:01;;;;;;;14.07;12.60;;;28.90;78.00;;;;;;5045668;28;20317;-62
2023/07/10 06:30:28;;;;;;;15.93;12.90;;;29.10;77.70;;;;;;5044672;28;20289;-60
2023/07/10 06:32:55;;;;;;;13.67;12.30;;;29.20;77.40;;;;;;5043452;28;20633;-62
2023/07/10 06:35:22;;;;;;;16.93;13.20;;;29.20;77.00;;;;;;5047756;28;20642;-64
2023/07/10 06:37:50;;;;;;;15.87;12.43;;;29.40;76.70;;;;;;5044362;28;20203;-62
2023/07/10 06:40:17;;;;;;;16.10;12.47;;;29.50;76.30;;;;;;5044932;28;20268;-62
2023/07/10 06:42:44;;;;;;;13.47;12.10;;;29.70;75.90;;;;;;5048615;28;20194;-61
2023/07/10 06:45:15;;;;;;;17.93;12.87;;;29.80;75.40;;;;;;5059510;28;20256;-62
2023/07/10 06:47:44;;;;;;;13.73;11.33;;;29.80;75.00;;;;;;5035236;28;20581;-62
2023/07/10 06:50:14;;;;;;;14.33;12.53;;;30.00;75.10;;;;;;5040921;28;20188;-61
2023/07/10 06:52:43;;;;;;;16.53;12.33;;;30.10;74.50;;;;;;5046107;28;20646;-62
2023/07/10 06:55:13;;;;;;;12.60;11.27;;;30.20;74.30;;;;;;5031766;28;20213;-62
2023/07/10 06:57:41;;;;;;;16.70;13.60;;;30.30;74.40;;;;;;5040019;28;20211;-62
2023/07/10 07:00:11;;;;;;;17.10;11.87;;;30.60;74.00;;;;;;5047222;28;20244;-61
2023/07/10 07:02:38;;;;;;;17.67;11.53;;;30.70;73.60;;;;;;5046456;28;20391;-62
2023/07/10 07:05:10;;;;;;;11.90;10.80;;;30.90;73.30;;;;;;5046615;28;20638;-62
2023/07/10 07:07:38;;;;;;;15.17;10.63;;;31.00;72.70;;;;;;5040470;28;20200;-62
2023/07/10 07:10:08;;;;;;;13.80;12.17;;;31.10;72.00;;;;;;5043719;28;20207;-62
2023/07/10 07:12:35;;;;;;;13.73;11.60;;;31.20;71.40;;;;;;5043861;28;20203;-62
2023/07/10 07:15:02;;;;;;;13.87;10.60;;;31.40;70.40;;;;;;5045023;28;20203;-62
2023/07/10 07:17:29;;;;;;;20.67;11.73;;;31.40;70.40;;;;;;5043519;28;20207;-62
2023/07/10 07:19:56;;;;;;;16.50;10.47;;;31.60;70.40;;;;;;5042146;28;20233;-62
2023/07/10 07:22:23;;;;;;;13.97;11.57;;;31.70;70.30;;;;;;5041087;28;20222;-62
2023/07/10 07:24:50;;;;;;;13.00;8.27;;;31.90;68.80;;;;;;5044146;28;20276;-62
2023/07/10 07:27:24;;;;;;;12.13;9.23;;;32.00;68.40;;;;;;5043311;28;20207;-62
2023/07/10 07:29:53;;;;;;;11.63;9.37;;;32.10;67.90;;;;;;5043180;28;20345;-61
2023/07/10 07:32:20;;;;;;;9.93;8.97;;;32.20;66.70;;;;;;5040430;28;20199;-61
2023/07/10 07:34:47;;;;;;;11.90;8.37;;;32.30;66.60;;;;;;5045761;28;20191;-62
2023/07/10 07:37:14;;;;;;;15.27;9.70;;;32.50;66.80;;;;;;5040015;28;20206;-62
2023/07/10 07:39:41;;;;;;;12.77;7.83;;;32.60;65.60;;;;;;5045559;28;20680;-62
2023/07/10 07:42:09;;;;;;;8.80;7.80;;;32.70;65.60;;;;;;5045824;28;20573;-62
2023/07/10 07:44:36;;;;;;;10.33;8.37;;;32.80;66.10;;;;;;5042767;28;20586;-62
2023/07/10 07:47:03;;;;;;;11.13;8.30;;;32.90;66.00;;;;;;5037448;28;20210;-62
2023/07/10 07:49:33;;;;;;;14.13;8.60;;;33.10;65.70;;;;;;5048080;28;20941;-62
2023/07/10 07:52:00;;;;;;;11.00;7.10;;;33.20;65.00;;;;;;5043938;28;20557;-62
2023/07/10 07:54:27;;;;;;;9.73;7.27;;;33.40;64.40;;;;;;5044829;28;20234;-62
2023/07/10 07:56:55;;;;;;;10.57;7.37;;;33.50;63.50;;;;;;5048390;28;20198;-62
2023/07/10 07:59:22;;;;;;;9.37;6.87;;;33.70;62.90;;;;;;5046421;28;20239;-62
2023/07/10 08:01:50;;;;;;;8.60;6.77;;;33.80;62.40;;;;;;5043453;28;20295;-62
2023/07/10 08:04:18;;;;;;;10.40;6.73;;;33.90;62.20;;;;;;5042323;28;20191;-62
2023/07/10 08:06:49;;;;;;;8.10;6.17;;;34.10;62.00;;;;;;5042177;28;20195;-62
2023/07/10 08:09:17;;;;;;;10.47;6.77;;;34.20;61.30;;;;;;5043874;28;20643;-61
2023/07/10 08:11:44;;;;;;;9.93;6.73;;;34.30;60.00;;;;;;5039073;28;20203;-61
2023/07/10 08:14:11;;;;;;;9.23;6.70;;;34.40;59.70;;;;;;5043100;28;20265;-61
2023/07/10 08:16:41;;;;;;;7.63;6.20;;;34.50;59.40;;;;;;5042367;28;20202;-62
2023/07/10 08:19:08;;;;;;;8.32;6.43;;;34.50;59.60;;;;;;5042878;28;20202;-62
2023/07/10 08:21:35;;;;;;;8.40;6.03;;;34.60;59.40;;;;;;5043969;28;20210;-61
2023/07/10 08:24:02;;;;;;;8.03;5.87;;;34.70;59.40;;;;;;5039570;28;20238;-61
2023/07/10 08:26:32;;;;;;;7.63;5.80;;;34.80;59.00;;;;;;5043466;28;20203;-61
2023/07/10 08:29:29;;;;;;;10.23;6.50;;;34.90;58.90;;;;;;5044534;28;20235;-62
2023/07/10 08:31:58;;;;;;;11.47;6.50;;;35.00;58.60;;;;;;5045572;28;20239;-62
2023/07/10 08:34:27;;;;;;;8.48;6.60;;;35.10;58.50;;;;;;5041774;28;20409;-61
2023/07/10 08:36:54;;;;;;;8.65;6.30;;;35.20;57.40;;;;;;5043625;28;20315;-61
2023/07/10 08:39:23;;;;;;;11.50;6.30;;;35.20;57.70;;;;;;5044641;28;20207;-61
2023/07/10 08:42:02;;;;;;;10.50;6.63;;;35.20;57.90;;;;;;5042502;28;20203;-61
2023/07/10 08:44:35;;;;;;;8.18;6.35;;;35.30;58.00;;;;;;5046206;28;20256;-62
2023/07/10 08:47:20;;;;;;;8.32;6.65;;;35.40;57.60;;;;;;5046625;28;20195;-62
2023/07/10 08:50:14;;;;;;;9.68;6.45;;;35.50;56.30;;;;;;5041929;28;20540;-62
2023/07/10 08:53:16;;;;;;;13.43;6.78;;;35.60;56.60;;;;;;5040412;28;20226;-59
2023/07/10 08:55:48;;;;;;;9.48;6.78;;;35.70;56.00;;;;;;5011856;28;20221;-60
2023/07/10 08:58:25;;;;;;;8.35;6.10;;;35.80;56.30;;;;;;5042285;28;20371;-61
2023/07/10 09:00:57;;;;;;;7.03;5.68;;;35.80;55.40;;;;;;5042964;28;20209;-62
2023/07/10 09:03:47;;;;;;;6.95;5.53;;;35.90;55.80;;;;;;5043787;28;20562;-62
2023/07/10 09:06:40;;;;;;;6.75;6.13;;;36.00;55.90;;;;;;5047650;28;20203;-62
2023/07/10 09:09:45;;;;;;;9.65;6.38;;;36.20;55.40;;;;;;5009378;28;20203;-61
2023/07/10 09:12:30;;;;;;;14.05;6.00;;;36.30;53.40;;;;;;5036031;28;20229;-62
2023/07/10 09:15:07;;;;;;;6.70;6.07;;;36.30;54.30;;;;;;5046870;28;20244;-61
2023/07/10 09:17:40;;;;;;;11.90;6.55;;;36.40;54.10;;;;;;5043707;28;20264;-62
2023/07/10 09:20:10;;;;;;;9.10;6.25;;;36.40;53.90;;;;;;5040196;28;20202;-61
2023/07/10 09:22:53;;;;;;;9.10;5.53;;;36.50;54.40;;;;;;5036628;28;20219;-64
2023/07/10 09:25:21;;;;;;;6.72;5.30;;;36.60;54.10;;;;;;5043137;28;20191;-64
2023/07/10 09:27:49;;;;;;;10.95;5.28;;;36.80;54.40;;;;;;5042846;28;20635;-64
2023/07/10 09:30:39;;;;;;;8.98;6.05;;;36.90;54.00;;;;;;5043679;28;20198;-64
2023/07/10 09:33:09;;;;;;;7.22;4.90;;;37.00;53.50;;;;;;5047435;28;20588;-64
2023/07/10 09:35:41;;;;;;;9.77;5.75;;;37.00;52.90;;;;;;5050509;28;20199;-64
2023/07/10 09:38:18;;;;;;;9.18;5.40;;;37.10;53.50;;;;;;5046832;28;20609;-64
2023/07/10 09:40:50;;;;;;;8.23;5.20;;;37.20;53.80;;;;;;5065160;28;20206;-64
2023/07/10 09:43:23;;;;;;;6.93;4.97;;;37.30;53.80;;;;;;5045135;28;20203;-64
2023/07/10 09:45:56;;;;;;;19.08;5.60;;;37.40;52.80;;;;;;5034020;28;20239;-65
2023/07/10 09:48:31;;;;;;;8.43;4.85;;;37.60;52.10;;;;;;5044440;28;20197;-64
2023/07/10 09:51:03;;;;;;;5.55;5.05;;;37.60;51.90;;;;;;5044560;28;20208;-65
2023/07/10 09:53:37;;;;;;;9.88;5.38;;;37.70;51.90;;;;;;5050040;28;20537;-64
2023/07/10 09:56:07;;;;;;;8.48;5.40;;;37.70;51.90;;;;;;5043010;28;20226;-64
2023/07/10 09:58:45;;;;;;;7.25;5.32;;;37.80;50.80;;;;;;5039017;28;20221;-65
2023/07/10 10:01:13;;;;;;;7.40;5.90;;;37.80;50.60;;;;;;5046860;28;20267;-65
2023/07/10 10:03:43;;;;;;;7.05;5.05;;;37.90;50.40;;;;;;5045447;28;20217;-65
2023/07/10 10:06:31;;;;;;;7.95;5.18;;;38.00;49.90;;;;;;5048936;28;20269;-65
2023/07/10 10:09:22;;;;;;;9.05;5.50;;;38.00;50.00;;;;;;5046151;28;20636;-64
2023/07/10 10:11:54;;;;;;;5.90;5.40;;;38.00;50.20;;;;;;5045420;28;20230;-64
2023/07/10 10:14:36;;;;;;;8.20;5.13;;;38.10;50.00;;;;;;5047724;28;20190;-64
2023/07/10 10:17:08;;;;;;;6.45;4.75;;;38.20;49.40;;;;;;5045959;28;20230;-64
2023/07/10 10:19:38;;;;;;;5.68;5.18;;;38.20;49.80;;;;;;5044264;28;20612;-64
2023/07/10 10:22:13;;;;;;;7.47;5.32;;;38.30;49.70;;;;;;5040009;28;20225;-62
2023/07/10 10:24:41;;;;;;;10.25;5.30;;;38.30;48.00;;;;;;5039942;28;20223;-63
2023/07/10 10:27:29;;;;;;;7.13;4.97;;;38.30;48.50;;;;;;5040598;28;20261;-63
2023/07/10 10:30:21;;;;;;;12.43;5.57;;;38.30;48.80;;;;;;5045640;28;20199;-62
2023/07/10 10:33:02;;;;;;;9.27;5.05;;;38.30;49.00;;;;;;5049932;28;20198;-65
2023/07/10 10:35:44;;;;;;;12.57;5.97;;;38.40;49.00;;;;;;5040909;28;20669;-62
2023/07/10 10:38:35;;;;;;;5.95;5.35;;;38.50;48.80;;;;;;5046214;28;20218;-65
2023/07/10 10:41:14;;;;;;;8.45;6.30;;;38.50;49.00;;;;;;5046788;28;20207;-64
2023/07/10 10:43:49;;;;;;;11.85;5.50;;;38.60;49.00;;;;;;5039187;28;20226;-65
2023/07/10 10:46:43;;;;;;;6.53;4.88;;;38.60;48.90;;;;;;5047800;28;20305;-63
2023/07/10 10:49:41;;;;;;;7.63;6.20;;;38.60;48.10;;;;;;5052375;28;20207;-63
2023/07/10 10:52:29;;;;;;;9.07;5.47;;;38.60;48.70;;;;;;5047747;28;20251;-64
2023/07/10 10:55:35;;;;;;;9.30;5.63;;;38.70;48.10;;;;;;5044412;28;20213;-63
2023/07/10 10:58:33;;;;;;;11.43;5.68;;;38.70;48.20;;;;;;5025725;28;20206;-66
2023/07/10 11:01:14;;;;;;;15.63;5.93;;;38.80;48.10;;;;;;5012552;28;20272;-64
2023/07/10 11:03:49;;;;;;;8.68;5.38;;;38.80;47.30;;;;;;5046047;28;20609;-66
2023/07/10 11:06:25;;;;;;;8.68;5.15;;;38.80;47.70;;;;;;5054951;28;20206;-65
2023/07/10 11:08:57;;;;;;;6.25;5.07;;;38.80;47.50;;;;;;5051199;28;20221;-65
2023/07/10 11:11:32;;;;;;;7.32;5.63;;;38.80;48.00;;;;;;5043324;28;20199;-64
2023/07/10 11:14:02;;;;;;;9.93;5.68;;;38.80;48.00;;;;;;5045648;28;20548;-63
2023/07/10 11:16:32;;;;;;;6.10;5.50;;;38.90;48.00;;;;;;5048255;28;20213;-64
2023/07/10 11:19:00;;;;;;;7.22;5.90;;;39.00;48.20;;;;;;5048426;28;20206;-64
2023/07/10 11:21:28;;;;;;;6.47;5.85;;;39.00;47.80;;;;;;5041250;28;20494;-64
2023/07/10 11:23:55;;;;;;;7.93;5.65;;;39.10;47.40;;;;;;5039141;28;20289;-64
2023/07/10 11:26:35;;;;;;;7.22;5.03;;;39.10;47.10;;;;;;5049035;28;20203;-64
2023/07/10 11:29:36;;;;;;;9.00;5.28;;;39.10;47.50;;;;;;5046302;28;20293;-62
2023/07/10 11:32:17;;;;;;;13.48;6.35;;;39.10;46.50;;;;;;5045015;28;20681;-68
2023/07/10 11:35:16;;;;;;;12.68;6.70;;;39.10;46.20;;;;;;5040787;28;20680;-68
2023/07/10 11:37:47;;;;;;;6.55;5.93;;;39.00;46.40;;;;;;5042267;28;20198;-68
2023/07/10 11:40:25;;;;;;;22.48;7.80;;;39.00;46.20;;;;;;5045448;28;20227;-67
2023/07/10 11:42:54;;;;;;;19.95;8.70;;;38.80;46.90;;;;;;5045827;28;20681;-68
2023/07/10 11:45:44;;;;;;;12.52;6.43;;;38.80;47.40;;;;;;5042278;28;20657;-67
2023/07/10 11:48:40;;;;;;;13.48;6.13;;;39.00;49.10;;;;;;5048427;28;20203;-67
2023/07/10 11:51:28;;;;;;;10.13;6.45;;;39.00;47.60;;;;;;5043342;28;20194;-68
2023/07/10 11:54:33;;;;;;;76.45;11.85;;;39.10;47.60;;;;;;5046409;28;20198;-67
2023/07/10 11:57:11;;;;;;;6.70;6.00;;;39.10;47.70;;;;;;5017928;28;20246;-68
2023/07/10 11:59:45;;;;;;;127.10;14.77;;;39.20;46.40;;;;;;5041154;28;20195;-68
2023/07/10 12:02:33;;;;;;;14.88;6.70;;;39.20;47.20;;;;;;5047874;28;20562;-68
2023/07/10 12:05:08;;;;;;;10.45;5.30;;;39.10;46.30;;;;;;5046391;28;20229;-68
2023/07/10 12:07:35;;;;;;;6.15;5.57;;;39.10;46.40;;;;;;5041080;28;20190;-67
2023/07/10 12:10:10;;;;;;;6.72;6.10;;;39.10;45.80;;;;;;5039009;28;20199;-65
2023/07/10 12:12:37;;;;;;;8.95;5.40;;;39.10;46.30;;;;;;5038963;28;20221;-67
2023/07/10 12:15:04;;;;;;;11.13;6.63;;;39.10;45.60;;;;;;5042243;28;20218;-67
2023/07/10 12:17:32;;;;;;;7.05;6.00;;;39.10;46.00;;;;;;5039990;28;20199;-66
2023/07/10 12:20:04;;;;;;;9.07;5.90;;;39.00;47.40;;;;;;5042610;28;20233;-64
2023/07/10 12:22:36;;;;;;;6.20;5.65;;;39.00;46.20;;;;;;5038505;28;20544;-66
2023/07/10 12:25:12;;;;;;;6.32;4.97;;;38.80;45.50;;;;;;5036976;28;20199;-66
2023/07/10 12:27:40;;;;;;;8.55;6.13;;;38.80;46.40;;;;;;5046248;28;20356;-65
2023/07/10 12:30:15;;;;;;;7.00;5.70;;;38.80;46.70;;;;;;5044365;28;20202;-70
2023/07/10 12:32:43;;;;;;;7.20;6.28;;;38.80;46.60;;;;;;5038941;28;20253;-66
2023/07/10 12:35:21;;;;;;;6.68;5.82;;;38.90;45.20;;;;;;5042423;28;20226;-68
2023/07/10 12:37:49;;;;;;;7.25;5.50;;;38.80;45.50;;;;;;5046765;28;20280;-65
2023/07/10 12:40:18;;;;;;;5.65;5.15;;;38.80;45.70;;;;;;5046417;28;20230;-66
2023/07/10 12:42:47;;;;;;;6.72;6.03;;;38.80;46.10;;;;;;5043494;28;20226;-67
2023/07/10 12:45:29;;;;;;;9.68;6.20;;;38.80;46.10;;;;;;5045263;28;20187;-69
2023/07/10 12:48:09;;;;;;;8.20;5.95;;;38.90;47.00;;;;;;5036006;28;20198;-69
2023/07/10 12:50:42;;;;;;;9.38;5.90;;;39.00;47.40;;;;;;5040592;28;20346;-68
2023/07/10 12:53:29;;;;;;;11.45;6.28;;;39.00;46.20;;;;;;5045207;28;20260;-64
2023/07/10 12:56:16;;;;;;;7.50;6.43;;;38.90;45.80;;;;;;5048885;28;20214;-66
2023/07/10 12:58:47;;;;;;;6.55;5.95;;;38.80;46.40;;;;;;5050724;28;20198;-66
2023/07/10 13:01:16;;;;;;;10.13;5.43;;;38.80;45.70;;;;;;5038057;28;20279;-66
2023/07/10 13:03:44;;;;;;;9.43;5.80;;;38.70;46.30;;;;;;5045958;28;20217;-67
2023/07/10 13:06:17;;;;;;;7.82;6.22;;;38.70;46.30;;;;;;5039799;28;20191;-68
2023/07/10 13:08:46;;;;;;;7.18;5.45;;;38.70;46.30;;;;;;5043050;28;20209;-67
2023/07/10 13:11:21;;;;;;;8.10;6.28;;;38.60;46.40;;;;;;5043841;28;20194;-66